Ridgeland, Wisconsin
Current Conditions -  °F | °C
As of 9:55 PM on Thursday 27 Nov 2014 (Local Time) from KY23 Reporting Station
Scattered Clouds Scattered Clouds  
Wind Chill:   Ceiling: Unl
Heat Index:   Visibility: 10mi
Dew Point: -2°   Wind: 0mph
Humidity: 77%   Direction: NA
Pressure: 30.31"   Gusts: NA
Location:  45.2°N, 91.9°W
Report Text: KY23 280355Z AUTO 00000KT 10SM SCT120 M16/M19 A3031 RMK AO2 T11561188
Loading
Personal Weather Stations






























Interactive Weather Map New forecast layout! Learn more

10-Day Weather Forecast

Advertisements
Track Severe Weather on mobile